James Reserve, California Weather observations

Data are for 10 minute period ending at time listed.
 Day   Time   Solar   Ave.   Ave.  Ave.  Vector  Max.   Baro.   Total    
  of    of     Rad.   Air    Rel.  Wind   Wind   Wind  Press.  Precip.   
Year   Day            Temp.  Hum.  Speed  Dir.   Gust                    
2015   (PST)  Kw/m2    F      %     mph   deg.    mph    mb.     in.     
-------------------------------------------------------------------------
  90   13:50   0.68   63.4    18    1.1   189     2.7   838.0    0.00 
  90   14:00   0.86   63.7    17    1.1   144     2.5   838.0    0.00 
  90   14:10   0.76   64.0    17    1.1   136     3.2   838.0    0.00 
  90   14:20   0.75   63.8    19    1.0   171     3.2   837.0    0.00 
  90   14:30   0.74   62.9    19    1.0   174     3.0   837.0    0.00 
  90   14:40   0.69   63.9    19    0.9   196     1.8   837.0    0.00 
  90   14:50   0.71   63.2    18    0.8   321     2.0   837.0    0.00 
  90   15:00   0.65   63.4    21    1.0   147     2.4   837.0    0.00 
  90   15:10   0.59   62.2    23    0.9   184     2.4   837.0    0.00 
  90   15:20   0.44   62.6    24    1.0   135     3.7   837.0    0.00 
  90   15:30   0.29   62.4    25    1.0   178     2.3   837.0    0.00 
  90   15:40   0.17   61.7    28    0.8   149     1.9   837.0    0.00 
  90   15:50   0.13   61.2    30    0.8   167     2.0   837.0    0.00 
  90   16:00   0.10   60.9    30    1.0   196     2.5   837.0    0.00 
  90   16:10   0.05   60.5    30    0.8   144     2.0   837.0    0.00 
  90   16:20   0.03   59.6    32    0.6    54     1.5   837.0    0.00 
  90   16:30   0.03   59.5    32    0.8   160     3.0   837.0    0.00 
  90   16:40   0.03   58.7    35    0.7   206     1.8   837.0    0.00 
  90   16:50   0.03   57.8    39    0.6    52     1.6   837.0    0.00 
  90   17:00   0.02   57.1    42    0.7   149     1.9   837.0    0.00 
  90   17:10   0.01   55.8    45    0.5   182     1.9   837.0    0.00 
  90   17:20   0.01   54.9    46    0.5   158     1.5   837.0    0.00 
  90   17:30   0.02   53.5    51    0.3   276     0.6   837.0    0.00 
  90   17:40   0.02   52.8    51    0.2   320     0.4   837.0    0.00 
  90   17:50   0.01   52.1    53    0.3     0     0.8   837.0    0.00 
  90   18:00   0.01   51.4    52    0.3     9     0.7   837.0    0.00 
  90   18:10   0.00   50.7    52    0.3    27     0.8   837.0    0.00 
  90   18:20   0.00   49.8    54    0.2   359     0.5   837.0    0.00 
  90   18:30   0.00   48.9    54    0.2   349     0.5   837.0    0.00 
  90   18:40   0.00   47.8    55    0.4    24     0.9   837.0    0.00 
  90   18:50   0.00   47.0    58    0.2   338     0.7   837.0    0.00 
  90   19:00   0.00   46.1    59    0.2   312     0.5   837.0    0.00 
  90   19:10   0.00   45.6    61    0.3   359     0.6   837.0    0.00 
  90   19:20   0.00   45.0    63    0.3     3     0.6   837.0    0.00 
  90   19:30   0.00   44.4    64    0.2   353     0.5   837.0    0.00 
  90   19:40   0.00   43.7    65    0.4    11     0.8   837.0    0.00 
  90   19:50   0.00   43.3    65    0.3   352     0.6   837.0    0.00 
  90   20:00   0.00   42.8    64    0.3   341     0.5   837.0    0.00 
  90   20:10   0.00   42.2    63    0.3    10     0.6   837.0    0.00 
  90   20:20   0.00   41.9    63    0.2    12     0.6   837.0    0.00 
  90   20:30   0.00   41.6    63    0.3   353     0.5   837.0    0.00 
  90   20:40   0.00   41.4    65    0.3     5     0.5   837.0    0.00 
  90   20:50   0.00   41.1    67    0.3    13     0.4   837.0    0.00 
  90   21:00   0.00   41.0    68    0.2   350     0.5   837.0    0.00 
  90   21:10   0.00   40.7    68    0.2    14     0.5   837.0    0.00 
  90   21:20   0.00   40.5    69    0.4    24     0.9   837.0    0.00 
  90   21:30   0.00   40.3    69    0.3   342     0.6   837.0    0.00 
  90   21:40   0.00   39.9    70    0.3    17     0.7   837.0    0.00 
  90   21:50   0.00   39.7    71    0.4    27     0.8   837.0    0.00 
  90   22:00   0.00   39.4    71    0.5     2     1.0   837.0    0.00 
  90   22:10   0.00   39.0    70    0.5    10     0.9   837.0    0.00 
  90   22:20   0.00   38.9    70    0.7    46     1.9   837.0    0.00 
  90   22:30   0.00   38.9    70    0.8    33     1.7   837.0    0.00 
  90   22:40   0.00   39.0    69    1.0    49     2.4   837.0    0.00 
  90   22:50   0.00   39.0    67    0.6    33     1.3   837.0    0.00 
  90   23:00   0.00   39.0    65    0.6    13     1.3   837.0    0.00 
  90   23:10   0.00   38.9    65    0.6    41     1.3   837.0    0.00 
  90   23:20   0.00   39.0    64    0.4    23     0.7   837.0    0.00 
  90   23:30   0.00   38.8    66    0.4    12     0.9   837.0    0.00 
  90   23:40   0.00   38.7    67    0.4    17     0.8   837.0    0.00 
  90   23:50   0.00   38.4    69    0.5    33     1.6   837.0    0.00 
  91    0:00   0.00   38.3    71    0.5    46     1.2   837.0    0.00 
  91    0:10   0.00   38.2    73    0.5    24     1.0   837.0    0.00 
  91    0:20   0.00   38.1    74    0.7    33     1.9   837.0    0.00 
  91    0:30   0.00   38.1    74    0.7    49     1.6   837.0    0.00 
  91    0:40   0.00   38.0    72    1.0    48     2.7   837.0    0.00 
  91    0:50   0.00   38.1    70    0.8    49     2.1   837.0    0.00 
  91    1:00   0.00   38.1    66    0.9    39     2.3   837.0    0.00 
  91    1:10   0.00   38.1    65    0.6    44     1.2   837.0    0.00 
  91    1:20   0.00   38.0    64    0.7    24     1.5   837.0    0.00 
  91    1:30   0.00   38.0    63    0.7    37     1.2   837.0    0.00 
  91    1:40   0.00   37.7    64    0.8    42     1.8   837.0    0.00 
  91    1:50   0.00   37.7    64    0.5    39     1.3   837.0    0.00 
  91    2:00   0.00   37.5    65    0.8    52     1.6   837.0    0.00 
  91    2:10   0.00   37.4    66    0.7    36     1.2   836.0    0.00 
  91    2:20   0.00   37.3    66    0.3     4     0.7   836.0    0.00 
  91    2:30   0.00   36.7    68    0.6    28     1.1   836.0    0.00 
  91    2:40   0.00   36.7    69    0.4    19     1.2   836.0    0.00 
  91    2:50   0.00   36.4    70    0.7    45     1.8   836.0    0.00 
  91    3:00   0.00   36.2    68    0.7    39     1.5   836.0    0.00 
  91    3:10   0.00   35.9    68    0.5    41     1.2   836.0    0.00 
  91    3:20   0.00   35.5    64    0.6    21     1.2   836.0    0.00 
  91    3:30   0.00   35.0    62    0.6    24     1.3   836.0    0.00 
  91    3:40   0.00   34.6    62    0.6    38     1.4   836.0    0.00 
  91    3:50   0.00   34.3    60    0.5    33     1.3   836.0    0.00 
  91    4:00   0.00   34.0    59    0.4    22     0.7   836.0    0.00 
  91    4:10   0.00   33.7    56    0.2   358     0.8   836.0    0.00 
  91    4:20   0.00   33.5    57    0.4    41     1.0   836.0    0.00 
  91    4:30   0.00   33.3    57    0.4    22     0.7   836.0    0.00 
  91    4:40   0.00   33.1    57    0.3    33     0.7   835.0    0.00 
  91    4:50   0.00   32.9    58    0.3    18     0.9   835.0    0.00 
  91    5:00   0.00   32.8    58    0.4    32     0.8   836.0    0.00 
  91    5:10   0.00   32.6    56    0.4    26     0.8   836.0    0.00 
  91    5:20   0.00   32.5    56    0.5    36     0.9   836.0    0.00 
  91    5:30   0.00   32.2    56    0.4    33     0.8   836.0    0.00 
  91    5:40   0.00   32.2    56    0.4    26     1.0   836.0    0.00 
  91    5:50   0.00   32.1    56    0.5    31     1.1   836.0    0.00 
  91    6:00   0.00   32.3    53    0.4    32     0.9   836.0    0.00 
  91    6:10   0.01   32.6    53    0.4    25     0.8   836.0    0.00 
  91    6:20   0.01   32.6    52    0.4    38     0.7   836.0    0.00 
  91    6:30   0.01   32.8    53    0.3    26     0.8   836.0    0.00 
  91    6:40   0.02   32.9    52    0.4    34     0.6   836.0    0.00 
  91    6:50   0.02   33.2    52    0.5    43     0.7   836.0    0.00 
  91    7:00   0.03   33.7    51    0.5    45     1.0   836.0    0.00 
  91    7:10   0.03   34.3    49    0.6    51     1.0   836.0    0.00 
  91    7:20   0.04   35.3    48    0.6    50     0.9   836.0    0.00 
  91    7:30   0.14   36.5    46    0.6    54     0.9   836.0    0.00 
  91    7:40   0.04   37.7    46    0.6    54     1.1   836.0    0.00 
  91    7:50   0.04   38.7    47    0.6    56     1.2   836.0    0.00 
  91    8:00   0.04   40.0    47    0.5    56     0.9   836.0    0.00 
  91    8:10   0.06   41.7    46    0.4    63     0.9   837.0    0.00 
  91    8:20   0.08   43.7    46    0.4    70     0.9   837.0    0.00 
  91    8:30   0.10   46.6    43    0.3   107     0.6   837.0    0.00 
  91    8:40   0.09   48.6    39    0.4   134     1.6   837.0    0.00 
  91    8:50   0.12   52.0    34    0.6   199     2.5   837.0    0.00 
  91    9:00   0.10   53.6    30    0.9   201     2.0   837.0    0.00 
  91    9:10   0.20   54.8    30    0.9   186     2.0   837.0    0.00 
  91    9:20   0.26   54.7    33    0.7   181     2.8   837.0    0.00 
  91    9:30   0.35   55.3    36    0.9   245     2.3   837.0    0.00 
  91    9:40   0.72   52.9    41    0.5   168     1.3   837.0    0.00 
  91    9:50   0.42   53.4    38    0.9   176     2.1   837.0    0.00 
  91   10:00   0.10   54.9    37    1.2   226     2.7   837.0    0.00 
  91   10:10   0.14   55.5    36    0.9   194     2.1   837.0    0.00 
  91   10:20   0.16   56.9    34    1.1   193     3.1   837.0    0.00 
  91   10:30   0.12   56.7    35    1.0   205     2.6   837.0    0.00 
  91   10:40   0.29   57.2    40    1.1   216     2.6   837.0    0.00 
  91   10:50   0.28   57.4    40    1.2   173     2.6   837.0    0.00 
  91   11:00   1.02   57.8    40    1.1   226     2.3   837.0    0.00 
  91   11:10   1.02   59.3    40    1.2   225     2.4   837.0    0.00 
  91   11:20   1.03   60.7    39    1.0   203     2.2   837.0    0.00 
  91   11:30   1.04   61.7    36    1.0   217     2.4   837.0    0.00 
  91   11:40   1.04   61.4    38    1.3   226     3.1   836.0    0.00 
  91   11:50   1.04   61.8    37    1.1   199     2.0   837.0    0.00 
  91   12:00   1.04   62.0    41    1.4   163     3.2   836.0    0.00 
  91   12:10   1.04   61.0    40    1.3   222     2.9   836.0    0.00 
  91   12:20   1.03   62.5    37    1.0   202     2.6   836.0    0.00 
  91   12:30   1.02   63.6    39    1.1   207     2.8   836.0    0.00 
  91   12:40   1.02   63.3    39    1.2   192     2.8   836.0    0.00 
  91   12:50   1.01   62.5    38    1.1   172     2.8   836.0    0.00 
  91   13:00   1.01   62.4    38    1.3   205     3.0   836.0    0.00 
  91   13:10   0.99   61.4    41    1.1   172     2.9   836.0    0.00 
  91   13:20   0.97   60.8    42    1.5   200     3.2   836.0    0.00 
  91   13:30   0.94   60.9    42    1.3   219     3.3   836.0    0.00 
  91   13:40   0.92   60.1    44    1.1   193     2.9   836.0    0.00 

Return to James Reserve graphs page.


Western Regional Climate Center,wrcc@dri.edu